CDT,Max TemperatureF,Mean TemperatureF,Min TemperatureF,Max Dew PointF,MeanDew PointF,Min DewpointF,Max Humidity, Mean Humidity, Min Humidity, Max Sea Level PressureIn, Mean Sea Level PressureIn, Min Sea Level PressureIn, Max VisibilityMiles, Mean VisibilityMiles, Min VisibilityMiles, Max Wind SpeedMPH, Mean Wind SpeedMPH, Max Gust SpeedMPH,PrecipitationIn, CloudCover, Events, WindDirDegrees
2013-6-1,73,62,52,59,51,42,84,73,55,29.94,29.70,29.53,10,10,2,18,6,29,0.08,7,Rain,307
2013-6-2,66,57,48,44,40,39,80,56,37,30.09,30.02,29.95,10,10,10,16,9,25,0.00,3,,336
2013-6-3,70,58,48,46,43,40,80,53,35,30.06,30.02,29.95,10,10,8,10,3,,0.00,2,,112
2013-6-4,64,60,55,54,50,43,89,72,46,30.07,30.04,29.98,10,8,2,20,10,23,0.05,8,Rain,124
2013-6-5,64,58,53,57,54,49,97,87,75,30.05,29.98,29.93,10,5,1,15,6,23,0.27,8,Rain,96
2013-6-6,57,54,51,54,50,48,94,86,77,30.04,30.00,29.96,10,9,2,10,8,,0.00,8,,3
2013-6-7,66,58,53,52,51,49,90,76,58,30.06,30.00,29.91,10,10,8,6,3,,0.00,7,,358
2013-6-8,72,62,55,56,53,51,89,68,54,29.92,29.90,29.87,10,10,7,12,4,18,0.00,4,Rain,135
2013-6-9,66,62,57,61,57,54,94,86,73,29.88,29.79,29.76,10,7,2,18,12,28,0.38,8,Rain,83
2013-6-10,75,68,60,61,60,57,94,84,61,29.85,29.82,29.79,10,5,0,8,3,,0.00,5,Fog,254
2013-6-11,77,67,57,66,61,55,94,82,64,29.89,29.85,29.82,10,7,2,8,3,,0.01,1,Rain,15
2013-6-12,73,68,62,64,61,52,94,85,59,29.92,29.82,29.77,10,7,1,14,6,20,1.67,6,Rain-Thunderstorm,16
2013-6-13,79,68,57,56,52,49,73,56,42,30.08,30.03,29.92,10,10,10,12,8,,0.00,1,,31
2013-6-14,80,69,59,61,57,50,75,62,52,30.07,29.98,29.86,10,10,9,20,9,28,0.00,3,Rain,133
2013-6-15,75,70,64,68,63,61,90,80,60,29.89,29.87,29.84,10,9,4,16,7,26,0.05,5,Rain-Thunderstorm,220
2013-6-16,87,72,59,60,54,43,90,59,23,29.91,29.88,29.84,10,10,8,29,6,50,0.03,1,Rain-Thunderstorm,259
2013-6-17,82,70,59,59,55,52,87,59,37,29.99,29.91,29.85,10,10,10,14,6,22,0.00,1,,314
2013-6-18,77,66,57,58,54,48,77,63,50,30.09,30.05,30.00,10,10,9,12,7,,0.00,5,,69
2013-6-19,84,72,61,61,57,53,78,57,40,30.05,29.99,29.93,10,10,5,12,6,,0.00,1,,140
2013-6-20,90,80,71,67,63,58,71,56,40,29.98,29.92,29.85,10,10,10,22,9,26,0.00,2,,171
2013-6-21,82,72,62,70,64,60,94,81,56,30.08,29.89,29.74,10,7,1,33,12,55,2.20,6,Rain-Thunderstorm,48
2013-6-22,82,74,66,68,65,61,94,80,61,29.99,29.91,29.83,10,8,2,12,6,18,0.59,5,Rain-Thunderstorm,76
2013-6-23,82,76,69,69,67,64,90,78,54,29.88,29.76,29.68,10,9,2,20,11,30,0.34,5,Rain-Thunderstorm,184
2013-6-24,82,72,64,72,66,62,94,81,62,29.90,29.85,29.79,10,8,0,20,4,25,0.01,2,Fog-Rain-Thunderstorm,151
2013-6-25,84,75,66,72,67,62,87,75,61,29.82,29.76,29.69,10,10,7,14,7,,0.00,1,,121
2013-6-26,89,81,73,74,70,62,91,72,49,29.80,29.70,29.65,10,9,5,17,6,24,0.00,3,,250
2013-6-27,88,78,69,66,60,51,87,56,29,29.81,29.79,29.78,10,10,10,23,6,32,0.00,1,,289
2013-6-28,81,73,66,63,59,55,87,65,50,29.80,29.77,29.74,10,9,4,20,11,28,0.06,4,Rain-Thunderstorm,318
2013-6-29,78,70,62,63,58,47,94,73,40,29.97,29.83,29.74,10,9,4,13,8,21,0.16,5,Rain,9
2013-6-30,82,70,57,56,52,48,83,55,34,30.10,30.06,29.99,10,10,8,12,6,16,0.00,0,,7